Time;durP1;ratioP1;P1;durP2;ratioP2;P2;SDS_P1;SDS_P2;PMS_P1;PMS_P2;Temp;Humidity;BMP_temperature;BMP_pressure;BME280_temperature;BME280_humidity;BME280_pressure;Samples;Min_cycle;Max_cycle;Signal;HPM_P1;HPM_P2
2021/09/03 00:01:31;;;;;;;15.95;10.25;;;16.40;99.90;;;;;;5111821;28;20016;-38
2021/09/03 00:03:57;;;;;;;14.75;10.48;;;16.40;99.90;;;;;;5111597;28;20571;-39
2021/09/03 00:06:23;;;;;;;14.27;10.55;;;16.40;99.90;;;;;;5111555;28;20027;-38
2021/09/03 00:08:48;;;;;;;19.70;11.30;;;16.40;99.90;;;;;;5111539;28;20099;-39
2021/09/03 00:11:14;;;;;;;20.25;11.38;;;16.30;99.90;;;;;;5111815;28;20465;-40
2021/09/03 00:13:39;;;;;;;16.35;10.68;;;16.30;99.90;;;;;;5111034;28;20084;-39
2021/09/03 00:16:08;;;;;;;14.27;9.93;;;16.30;99.90;;;;;;5111180;28;20862;-36
2021/09/03 00:18:34;;;;;;;18.65;12.13;;;16.30;99.90;;;;;;5111966;28;20035;-40
2021/09/03 00:20:59;;;;;;;17.58;11.77;;;16.30;99.90;;;;;;5110059;28;20012;-37
2021/09/03 00:23:37;;;;;;;17.45;11.30;;;16.30;99.90;;;;;;5111794;28;20081;-38
2021/09/03 00:26:05;;;;;;;16.65;10.63;;;16.30;99.90;;;;;;5110115;28;20020;-38
2021/09/03 00:28:31;;;;;;;14.07;11.00;;;16.20;99.90;;;;;;5111614;28;20433;-37
2021/09/03 00:31:00;;;;;;;12.48;9.25;;;16.20;99.90;;;;;;5110909;28;20485;-38
2021/09/03 00:33:31;;;;;;;16.25;10.95;;;16.20;99.90;;;;;;5110618;28;20039;-38
2021/09/03 00:35:57;;;;;;;18.67;10.68;;;16.20;99.90;;;;;;5110566;28;20024;-36
2021/09/03 00:38:22;;;;;;;20.42;13.23;;;16.10;99.90;;;;;;5111299;28;20038;-39
2021/09/03 00:40:48;;;;;;;19.42;12.27;;;16.10;99.90;;;;;;5110009;28;20055;-39
2021/09/03 00:43:16;;;;;;;21.40;12.65;;;16.10;99.90;;;;;;5111334;28;20023;-39
2021/09/03 00:45:41;;;;;;;15.50;11.55;;;16.00;99.90;;;;;;5111192;28;20026;-37
2021/09/03 00:48:07;;;;;;;20.00;12.93;;;16.00;99.90;;;;;;5110213;28;20023;-38
2021/09/03 00:50:32;;;;;;;17.58;12.13;;;16.00;99.90;;;;;;5111158;28;20028;-39
2021/09/03 00:52:58;;;;;;;19.83;12.65;;;15.90;99.90;;;;;;5110836;28;20032;-36
2021/09/03 00:55:24;;;;;;;20.90;12.75;;;15.90;99.90;;;;;;5110932;28;20405;-38
2021/09/03 00:57:49;;;;;;;18.70;12.25;;;15.90;99.90;;;;;;5110709;28;20431;-37
2021/09/03 01:00:15;;;;;;;20.70;14.27;;;15.90;99.90;;;;;;5111282;28;20023;-39
2021/09/03 01:02:41;;;;;;;20.70;13.85;;;15.90;99.90;;;;;;5109540;28;20073;-34
2021/09/03 01:05:07;;;;;;;15.98;11.32;;;15.90;99.90;;;;;;5110893;28;20023;-39
2021/09/03 01:07:33;;;;;;;20.15;12.77;;;15.80;99.90;;;;;;5111094;28;20122;-38
2021/09/03 01:09:59;;;;;;;18.92;12.57;;;15.80;99.90;;;;;;5109636;28;20020;-37
2021/09/03 01:12:24;;;;;;;16.83;12.48;;;15.80;99.90;;;;;;5110117;28;20042;-37
2021/09/03 01:14:56;;;;;;;17.55;12.52;;;15.70;99.90;;;;;;5109871;28;20451;-35
2021/09/03 01:17:21;;;;;;;18.33;13.10;;;15.70;99.90;;;;;;5110292;28;20023;-36
2021/09/03 01:19:52;;;;;;;20.70;13.20;;;15.70;99.90;;;;;;5110097;28;20022;-38
2021/09/03 01:22:32;;;;;;;19.25;13.13;;;15.70;99.90;;;;;;5109645;28;20364;-34
2021/09/03 01:25:03;;;;;;;19.10;11.93;;;15.60;99.90;;;;;;5110001;28;20024;-38
2021/09/03 01:27:29;;;;;;;20.30;13.43;;;15.60;99.90;;;;;;5110043;28;20020;-38
2021/09/03 01:29:54;;;;;;;23.20;14.18;;;15.60;99.90;;;;;;5109503;28;20080;-36
2021/09/03 01:32:20;;;;;;;25.52;14.48;;;15.50;99.90;;;;;;5109517;28;20031;-37
2021/09/03 01:34:46;;;;;;;19.13;13.60;;;15.50;99.90;;;;;;5109666;28;20019;-38
2021/09/03 01:37:11;;;;;;;19.20;12.98;;;15.50;99.90;;;;;;5109847;28;20034;-35
2021/09/03 01:39:37;;;;;;;18.83;12.40;;;15.50;99.90;;;;;;5109277;28;20023;-34
2021/09/03 01:42:03;;;;;;;17.95;12.68;;;15.50;99.90;;;;;;5109645;28;20042;-38
2021/09/03 01:44:30;;;;;;;20.58;13.90;;;15.50;99.90;;;;;;5109479;28;20019;-38
2021/09/03 01:46:55;;;;;;;16.73;12.15;;;15.50;99.90;;;;;;5109396;28;20087;-36
2021/09/03 01:49:21;;;;;;;20.80;13.90;;;15.50;99.90;;;;;;5109698;28;20020;-36
2021/09/03 01:51:46;;;;;;;18.38;13.40;;;15.50;99.90;;;;;;5108272;28;20088;-37
2021/09/03 01:54:12;;;;;;;17.95;12.90;;;15.50;99.90;;;;;;5109519;28;20390;-36
2021/09/03 01:56:37;;;;;;;16.92;12.32;;;15.50;99.90;;;;;;5108987;28;20027;-36
2021/09/03 01:59:03;;;;;;;22.30;13.35;;;15.40;99.90;;;;;;5108606;28;20253;-37
2021/09/03 02:01:32;;;;;;;18.15;13.93;;;15.40;99.90;;;;;;5110138;28;20069;-38
2021/09/03 02:03:57;;;;;;;18.77;13.88;;;15.40;99.90;;;;;;5108760;28;20089;-38
2021/09/03 02:06:23;;;;;;;17.67;13.40;;;15.40;99.90;;;;;;5109339;28;20032;-35
2021/09/03 02:08:48;;;;;;;19.48;13.43;;;15.40;99.90;;;;;;5108671;28;20375;-39
2021/09/03 02:11:14;;;;;;;22.75;14.25;;;15.40;99.90;;;;;;5108963;28;20121;-40
2021/09/03 02:13:40;;;;;;;16.65;13.07;;;15.40;99.90;;;;;;5108929;28;20028;-39
2021/09/03 02:16:06;;;;;;;21.05;13.65;;;15.40;99.90;;;;;;5108977;28;20120;-39
2021/09/03 02:18:32;;;;;;;16.30;12.63;;;15.40;99.90;;;;;;5108986;28;20437;-38
2021/09/03 02:20:58;;;;;;;15.57;12.18;;;15.40;99.90;;;;;;5108752;28;20126;-39
2021/09/03 02:23:23;;;;;;;18.80;13.30;;;15.40;99.90;;;;;;5109924;28;20035;-39
2021/09/03 02:25:49;;;;;;;17.88;13.20;;;15.40;99.90;;;;;;5108236;28;20027;-40
2021/09/03 02:28:15;;;;;;;17.33;11.82;;;15.40;99.90;;;;;;5109596;28;20027;-40
2021/09/03 02:30:41;;;;;;;18.58;12.13;;;15.40;99.90;;;;;;5109415;28;20370;-38
2021/09/03 02:33:10;;;;;;;17.60;12.57;;;15.40;99.90;;;;;;5108658;28;20039;-36
2021/09/03 02:35:36;;;;;;;16.27;11.95;;;15.40;99.90;;;;;;5109890;28;20028;-34
2021/09/03 02:38:01;;;;;;;20.10;13.35;;;15.40;99.90;;;;;;5109653;28;20023;-37
2021/09/03 02:40:27;;;;;;;16.55;12.32;;;15.40;99.90;;;;;;5108674;28;20080;-40
2021/09/03 02:42:53;;;;;;;19.48;12.90;;;15.40;99.90;;;;;;5109484;28;20112;-37
2021/09/03 02:45:19;;;;;;;19.23;12.85;;;15.30;99.90;;;;;;5113333;28;20023;-36
2021/09/03 02:47:45;;;;;;;17.27;11.48;;;15.30;99.90;;;;;;5113338;28;20023;-36
2021/09/03 02:50:14;;;;;;;19.83;13.82;;;15.30;99.90;;;;;;5113566;28;20016;-37
2021/09/03 02:52:39;;;;;;;20.63;14.63;;;15.20;99.90;;;;;;5113189;28;20032;-37
2021/09/03 02:55:06;;;;;;;18.10;13.27;;;15.20;99.90;;;;;;5112795;28;20049;-37
2021/09/03 02:57:31;;;;;;;20.55;14.32;;;15.20;99.90;;;;;;5113647;28;20119;-37
2021/09/03 02:59:56;;;;;;;18.50;13.38;;;15.20;99.90;;;;;;5113382;28;20098;-37
2021/09/03 03:02:22;;;;;;;22.73;15.07;;;15.10;99.90;;;;;;5112506;28;20549;-39
2021/09/03 03:04:48;;;;;;;22.80;15.57;;;15.10;99.90;;;;;;5112569;28;20030;-37
2021/09/03 03:07:13;;;;;;;19.42;14.93;;;15.10;99.90;;;;;;5113215;28;20031;-35
2021/09/03 03:09:42;;;;;;;19.92;15.02;;;15.10;99.90;;;;;;5112329;28;20019;-37
2021/09/03 03:12:07;;;;;;;18.70;13.32;;;15.10;99.90;;;;;;5111988;28;20087;-37
2021/09/03 03:14:33;;;;;;;21.35;15.07;;;15.00;99.90;;;;;;5112764;28;20055;-37
2021/09/03 03:17:01;;;;;;;23.58;15.38;;;15.00;99.90;;;;;;5112383;28;20050;-38
2021/09/03 03:19:27;;;;;;;18.52;13.77;;;15.00;99.90;;;;;;5112992;28;20019;-37
2021/09/03 03:22:02;;;;;;;21.75;14.57;;;14.90;99.90;;;;;;5112240;28;20019;-35
2021/09/03 03:24:28;;;;;;;19.80;14.40;;;14.90;99.90;;;;;;5112995;28;20436;-39
2021/09/03 03:26:57;;;;;;;24.02;16.02;;;14.90;99.90;;;;;;5112292;28;20157;-36
2021/09/03 03:29:23;;;;;;;23.25;15.57;;;14.90;99.90;;;;;;5112216;28;20020;-39
2021/09/03 03:31:55;;;;;;;17.05;13.40;;;14.90;99.90;;;;;;5112506;28;20122;-37
2021/09/03 03:34:30;;;;;;;23.07;17.30;;;14.90;99.90;;;;;;5113115;28;20035;-37
2021/09/03 03:36:55;;;;;;;18.10;14.05;;;14.80;99.90;;;;;;5111658;28;20019;-39
2021/09/03 03:39:21;;;;;;;21.73;16.13;;;14.80;99.90;;;;;;5112594;28;20020;-38
2021/09/03 03:41:47;;;;;;;26.20;16.85;;;14.70;99.90;;;;;;5111698;28;20015;-37
2021/09/03 03:44:12;;;;;;;20.38;14.73;;;14.70;99.90;;;;;;5112353;28;20011;-38
2021/09/03 03:46:38;;;;;;;20.83;15.60;;;14.70;99.90;;;;;;5112280;28;20064;-40
2021/09/03 03:49:03;;;;;;;24.20;18.80;;;14.60;99.90;;;;;;5112145;28;20019;-35
2021/09/03 03:51:32;;;;;;;22.92;17.00;;;14.60;99.90;;;;;;5111784;28;20040;-39
2021/09/03 03:53:57;;;;;;;31.80;19.42;;;14.60;99.90;;;;;;5111765;28;20042;-37
2021/09/03 03:56:23;;;;;;;23.15;16.08;;;14.50;99.90;;;;;;5111821;28;20494;-39
2021/09/03 03:58:48;;;;;;;27.17;19.02;;;14.50;99.90;;;;;;5111526;28;20019;-37
2021/09/03 04:01:14;;;;;;;23.88;16.80;;;14.50;99.90;;;;;;5112944;28;20032;-40
2021/09/03 04:03:39;;;;;;;26.77;17.50;;;14.40;99.90;;;;;;5111714;28;20028;-36
2021/09/03 04:06:05;;;;;;;25.27;18.38;;;14.40;99.90;;;;;;5110886;28;20016;-37
2021/09/03 04:08:31;;;;;;;25.90;17.52;;;14.40;99.90;;;;;;5112177;28;20116;-38
2021/09/03 04:10:59;;;;;;;24.42;15.68;;;14.40;99.90;;;;;;5111291;28;20075;-34
2021/09/03 04:13:25;;;;;;;29.67;18.95;;;14.40;99.90;;;;;;5111784;28;20051;-38
2021/09/03 04:15:50;;;;;;;25.30;16.48;;;14.40;99.90;;;;;;5111201;28;20112;-39
2021/09/03 04:18:19;;;;;;;26.90;17.25;;;14.40;99.90;;;;;;5111168;28;20049;-37
2021/09/03 04:20:44;;;;;;;24.52;17.13;;;14.40;99.90;;;;;;5111859;28;20099;-33
2021/09/03 04:23:10;;;;;;;24.17;17.58;;;14.40;99.90;;;;;;5112216;28;20098;-36
2021/09/03 04:25:36;;;;;;;27.80;19.73;;;14.40;99.90;;;;;;5111403;28;20451;-37
2021/09/03 04:28:02;;;;;;;27.45;18.05;;;14.30;99.90;;;;;;5111608;28;20103;-39
2021/09/03 04:30:28;;;;;;;30.90;19.52;;;14.30;99.90;;;;;;5111248;28;20024;-40
2021/09/03 04:32:53;;;;;;;27.58;19.20;;;14.30;99.90;;;;;;5110406;28;20047;-39
2021/09/03 04:35:19;;;;;;;26.38;19.15;;;14.30;99.90;;;;;;5111391;28;20046;-37
2021/09/03 04:37:46;;;;;;;25.25;17.98;;;14.30;99.90;;;;;;5111834;28;20034;-35
2021/09/03 04:40:16;;;;;;;22.25;17.15;;;14.20;99.90;;;;;;5110751;28;20015;-37
2021/09/03 04:42:42;;;;;;;26.15;17.23;;;14.20;99.90;;;;;;5110899;28;20102;-38
2021/09/03 04:45:08;;;;;;;27.55;19.15;;;14.20;99.90;;;;;;5111502;28;20550;-38
2021/09/03 04:47:36;;;;;;;27.67;18.17;;;14.20;99.90;;;;;;5111418;28;20043;-35
2021/09/03 04:50:04;;;;;;;25.50;18.77;;;14.20;99.90;;;;;;5110556;28;20131;-38
2021/09/03 04:52:32;;;;;;;28.10;19.55;;;14.20;99.90;;;;;;5111989;28;20032;-39
2021/09/03 04:54:58;;;;;;;30.10;21.05;;;14.20;99.90;;;;;;5109852;28;20019;-37
2021/09/03 04:57:23;;;;;;;27.70;19.73;;;14.20;99.90;;;;;;5111137;28;20023;-38
2021/09/03 04:59:49;;;;;;;28.30;19.80;;;14.20;99.90;;;;;;5110952;28;20043;-38
2021/09/03 05:02:21;;;;;;;25.65;17.70;;;14.10;99.90;;;;;;5110037;28;20016;-34
2021/09/03 05:04:46;;;;;;;29.77;20.07;;;14.10;99.90;;;;;;5110304;28;20043;-37
2021/09/03 05:07:12;;;;;;;27.55;19.20;;;14.10;99.90;;;;;;5110827;28;20058;-37
2021/09/03 05:09:40;;;;;;;24.80;18.20;;;14.10;99.90;;;;;;5110682;28;20370;-40
2021/09/03 05:12:09;;;;;;;27.65;18.30;;;14.10;99.90;;;;;;5110106;28;20048;-39
2021/09/03 05:14:34;;;;;;;25.17;18.17;;;14.20;99.90;;;;;;5110323;28;20028;-35
2021/09/03 05:17:02;;;;;;;25.52;18.63;;;14.10;99.90;;;;;;5110298;28;20089;-40
2021/09/03 05:19:28;;;;;;;28.63;18.17;;;14.20;99.90;;;;;;5110593;28;20029;-39
2021/09/03 05:21:54;;;;;;;24.52;18.30;;;14.20;99.90;;;;;;5109643;28;20020;-37
2021/09/03 05:24:20;;;;;;;26.35;18.00;;;14.20;99.90;;;;;;5110519;28;20090;-37
2021/09/03 05:26:45;;;;;;;25.65;18.08;;;14.20;99.90;;;;;;5109406;28;20102;-37
2021/09/03 05:29:11;;;;;;;28.92;18.02;;;14.20;99.90;;;;;;5110744;28;20034;-40
2021/09/03 05:31:43;;;;;;;25.60;18.00;;;14.20;99.90;;;;;;5109747;28;20092;-37
2021/09/03 05:34:08;;;;;;;29.23;20.23;;;14.20;99.90;;;;;;5111145;28;20114;-38
2021/09/03 05:36:34;;;;;;;26.52;20.02;;;14.20;99.90;;;;;;5110159;28;20110;-35
2021/09/03 05:39:00;;;;;;;24.75;18.70;;;14.30;99.90;;;;;;5108837;28;20059;-39
2021/09/03 05:41:25;;;;;;;25.98;19.20;;;14.30;99.90;;;;;;5110334;28;20035;-40
2021/09/03 05:43:51;;;;;;;30.70;21.27;;;14.30;99.90;;;;;;5109434;28;20131;-36
2021/09/03 05:46:16;;;;;;;30.75;20.10;;;14.30;99.90;;;;;;5109967;28;20035;-37
2021/09/03 05:48:45;;;;;;;31.17;19.67;;;14.40;99.90;;;;;;5103436;28;20023;-36
2021/09/03 05:51:10;;;;;;;27.77;20.13;;;14.40;99.90;;;;;;5091333;28;20038;-36
2021/09/03 05:53:36;;;;;;;29.95;19.05;;;14.40;99.90;;;;;;5110268;28;20483;-37
2021/09/03 05:56:02;;;;;;;28.60;19.60;;;14.50;99.90;;;;;;5096618;28;20089;-37
2021/09/03 05:58:30;;;;;;;32.17;20.15;;;14.50;99.90;;;;;;5109928;28;20084;-36
2021/09/03 06:00:57;;;;;;;28.60;20.30;;;14.50;99.90;;;;;;5105833;28;20015;-37
2021/09/03 06:03:22;;;;;;;26.77;19.90;;;14.60;99.90;;;;;;5109124;28;20356;-38
2021/09/03 06:05:50;;;;;;;27.33;19.98;;;14.60;99.90;;;;;;5109148;28;20027;-37
2021/09/03 06:08:16;;;;;;;25.67;17.75;;;14.60;99.90;;;;;;5108754;28;20432;-36
2021/09/03 06:10:41;;;;;;;27.63;19.73;;;14.60;99.90;;;;;;5107899;28;20075;-40
2021/09/03 06:13:07;;;;;;;32.70;21.40;;;14.60;99.90;;;;;;5108354;28;20024;-39
2021/09/03 06:15:35;;;;;;;29.52;19.70;;;14.70;99.90;;;;;;5109195;28;20651;-37
2021/09/03 06:18:01;;;;;;;22.75;17.33;;;14.70;99.90;;;;;;5108380;28;20021;-37
2021/09/03 06:20:26;;;;;;;26.73;18.90;;;14.70;99.90;;;;;;5083994;28;20783;-38
2021/09/03 06:22:52;;;;;;;27.60;20.25;;;14.80;99.90;;;;;;5088380;28;20031;-38
2021/09/03 06:25:17;;;;;;;29.42;20.90;;;14.80;99.90;;;;;;5104757;28;20055;-35
2021/09/03 06:27:55;;;;;;;29.92;20.75;;;14.80;99.90;;;;;;5098022;28;20030;-36
2021/09/03 06:30:24;;;;;;;30.92;21.02;;;14.90;99.90;;;;;;5110134;28;20068;-40
2021/09/03 06:32:49;;;;;;;35.78;21.08;;;15.00;99.90;;;;;;5108473;28;20490;-40
2021/09/03 06:35:33;;;;;;;31.40;20.75;;;15.00;99.90;;;;;;5108026;28;20047;-38
2021/09/03 06:38:01;;;;;;;30.83;20.90;;;15.00;99.90;;;;;;5084199;28;20073;-39
2021/09/03 06:40:27;;;;;;;28.08;18.15;;;15.10;99.90;;;;;;5108193;28;20036;-36
2021/09/03 06:42:52;;;;;;;26.73;17.98;;;15.10;99.90;;;;;;5108817;28;20266;-36
2021/09/03 06:45:18;;;;;;;27.00;18.73;;;15.20;99.90;;;;;;5110033;28;20023;-34
2021/09/03 06:47:44;;;;;;;27.33;18.50;;;15.20;99.90;;;;;;5108504;28;20031;-41
2021/09/03 06:50:09;;;;;;;30.38;20.83;;;15.30;99.90;;;;;;5109038;28;20480;-39
2021/09/03 06:52:35;;;;;;;26.00;17.83;;;15.30;99.90;;;;;;5109176;28;20030;-38
2021/09/03 06:55:03;;;;;;;25.98;16.90;;;15.40;99.90;;;;;;5107899;28;20399;-39
2021/09/03 06:57:29;;;;;;;24.85;19.17;;;15.40;99.90;;;;;;5109710;28;20031;-38
2021/09/03 06:59:55;;;;;;;26.80;17.67;;;15.50;99.90;;;;;;5108448;28;20016;-39
2021/09/03 07:02:21;;;;;;;26.30;18.83;;;15.60;99.90;;;;;;5109737;28;20589;-39
2021/09/03 07:04:55;;;;;;;28.92;19.00;;;15.60;99.90;;;;;;5109185;28;20455;-36
2021/09/03 07:07:21;;;;;;;24.98;17.77;;;15.70;99.90;;;;;;5108865;28;20047;-37
2021/09/03 07:09:46;;;;;;;20.98;16.67;;;15.70;99.90;;;;;;5102999;28;20090;-38
2021/09/03 07:12:15;;;;;;;24.35;17.13;;;15.80;99.90;;;;;;5103685;28;20059;-37
2021/09/03 07:14:48;;;;;;;24.55;17.45;;;15.80;99.90;;;;;;5094031;28;20028;-40
2021/09/03 07:17:14;;;;;;;21.73;16.45;;;15.90;99.90;;;;;;5103125;28;20501;-37
2021/09/03 07:19:39;;;;;;;22.83;15.48;;;15.90;99.90;;;;;;5108889;28;20451;-39
2021/09/03 07:22:06;;;;;;;25.00;17.85;;;16.00;99.90;;;;;;5108164;28;20179;-38
2021/09/03 07:24:34;;;;;;;23.80;15.77;;;16.00;99.90;;;;;;5109420;28;20485;-39
2021/09/03 07:27:00;;;;;;;19.98;14.75;;;16.10;99.90;;;;;;5108945;28;20027;-38
2021/09/03 07:29:26;;;;;;;19.83;13.93;;;16.20;99.90;;;;;;5108673;28;20016;-40
2021/09/03 07:31:53;;;;;;;18.80;14.75;;;16.20;99.90;;;;;;5111381;28;20031;-39
2021/09/03 07:34:19;;;;;;;21.08;14.07;;;16.30;99.90;;;;;;5112156;28;20178;-39
2021/09/03 07:36:44;;;;;;;18.30;12.85;;;16.40;99.90;;;;;;5112354;28;20476;-40
2021/09/03 07:39:10;;;;;;;17.27;12.45;;;16.40;99.90;;;;;;5113257;28;20497;-35
2021/09/03 07:41:35;;;;;;;19.25;13.85;;;16.40;99.90;;;;;;5112243;28;20020;-39
2021/09/03 07:44:01;;;;;;;18.48;14.50;;;16.50;99.90;;;;;;5112003;28;20107;-37
2021/09/03 07:46:29;;;;;;;17.30;13.45;;;16.60;99.90;;;;;;5107650;28;20028;-35
2021/09/03 07:48:59;;;;;;;20.58;15.07;;;16.70;99.90;;;;;;5111674;28;20024;-39
2021/09/03 07:51:24;;;;;;;24.08;15.10;;;16.70;99.90;;;;;;5112384;28;20027;-34
2021/09/03 07:53:53;;;;;;;18.65;13.10;;;16.80;99.90;;;;;;5112537;28;20051;-37
2021/09/03 07:56:19;;;;;;;19.27;13.20;;;16.90;99.90;;;;;;5095374;28;20031;-36
2021/09/03 07:58:44;;;;;;;17.90;13.60;;;17.00;99.90;;;;;;5078930;28;20016;-37
2021/09/03 08:01:10;;;;;;;19.52;12.80;;;17.00;99.90;;;;;;5090901;28;20103;-37
2021/09/03 08:03:38;;;;;;;17.33;12.00;;;17.10;99.90;;;;;;5084602;28;20377;-39
2021/09/03 08:06:03;;;;;;;18.80;13.65;;;17.20;99.90;;;;;;5090036;28;20027;-34
2021/09/03 08:08:30;;;;;;;18.50;11.85;;;17.20;99.90;;;;;;5114503;28;20356;-38
2021/09/03 08:10:55;;;;;;;13.30;10.32;;;17.30;99.90;;;;;;5110627;28;20114;-40
2021/09/03 08:13:21;;;;;;;18.08;13.00;;;17.40;99.90;;;;;;5096476;28;20563;-39
2021/09/03 08:15:47;;;;;;;18.35;11.80;;;17.50;99.90;;;;;;5094686;28;20024;-38
2021/09/03 08:18:12;;;;;;;21.40;14.18;;;17.50;99.90;;;;;;5112008;28;20054;-40
2021/09/03 08:20:38;;;;;;;18.10;13.25;;;17.60;99.90;;;;;;5110565;28;20024;-37
2021/09/03 08:23:13;;;;;;;15.88;11.88;;;17.60;99.90;;;;;;5109431;28;20054;-39
2021/09/03 08:25:39;;;;;;;15.02;11.30;;;17.70;99.90;;;;;;5111752;28;20046;-40
2021/09/03 08:28:05;;;;;;;13.00;10.65;;;17.70;99.90;;;;;;5111848;28;20065;-37
2021/09/03 08:30:30;;;;;;;18.40;12.30;;;17.80;99.90;;;;;;5112442;28;20027;-38
2021/09/03 08:32:56;;;;;;;14.18;10.70;;;17.90;99.90;;;;;;5109715;28;20379;-37
2021/09/03 08:35:22;;;;;;;15.32;11.38;;;17.90;99.90;;;;;;5111317;28;20024;-35
2021/09/03 08:37:48;;;;;;;13.60;10.40;;;18.00;99.90;;;;;;5111056;28;20080;-39
2021/09/03 08:40:14;;;;;;;15.07;11.30;;;18.00;99.90;;;;;;5111596;28;20020;-39
2021/09/03 08:42:41;;;;;;;17.17;12.13;;;18.10;99.90;;;;;;5109382;28;20039;-36
2021/09/03 08:45:09;;;;;;;14.57;10.35;;;18.20;99.90;;;;;;5097720;28;20099;-37
2021/09/03 08:47:39;;;;;;;10.77;9.30;;;18.20;99.90;;;;;;5091847;28;20043;-36
2021/09/03 08:50:07;;;;;;;14.38;9.98;;;18.20;99.90;;;;;;5087631;28;20013;-36
2021/09/03 08:52:33;;;;;;;12.77;9.00;;;18.30;99.90;;;;;;5090849;28;20031;-39
2021/09/03 08:55:08;;;;;;;14.20;9.43;;;18.40;99.90;;;;;;5082159;28;20039;-36
2021/09/03 08:57:34;;;;;;;14.65;10.00;;;18.40;99.90;;;;;;5086958;28;20031;-37
2021/09/03 09:00:12;;;;;;;15.52;10.60;;;18.50;99.90;;;;;;5087059;28;20020;-39
2021/09/03 09:03:04;;;;;;;14.00;10.05;;;18.50;99.90;;;;;;5086655;28;20041;-34
2021/09/03 09:05:51;;;;;;;15.23;10.38;;;18.60;99.90;;;;;;5083892;28;20027;-36
2021/09/03 09:08:19;;;;;;;16.60;10.70;;;18.70;99.90;;;;;;5090499;28;20066;-37
2021/09/03 09:11:03;;;;;;;12.60;8.98;;;18.80;99.90;;;;;;5089169;28;20040;-38
2021/09/03 09:13:38;;;;;;;12.95;9.52;;;18.90;99.90;;;;;;5093098;28;20032;-37
2021/09/03 09:16:15;;;;;;;12.00;9.10;;;18.90;99.90;;;;;;5083823;28;20364;-38
2021/09/03 09:19:00;;;;;;;9.32;7.18;;;18.90;99.90;;;;;;5096973;28;20380;-40
2021/09/03 09:21:39;;;;;;;12.85;7.80;;;19.00;99.90;;;;;;5088328;28;20032;-42
2021/09/03 09:24:15;;;;;;;10.73;7.43;;;19.10;99.90;;;;;;5099230;28;20027;-39
2021/09/03 09:26:55;;;;;;;9.07;7.50;;;19.20;99.90;;;;;;5109520;28;20102;-42
2021/09/03 09:29:31;;;;;;;10.75;7.75;;;19.20;99.90;;;;;;5107979;28;20036;-40
2021/09/03 09:32:05;;;;;;;11.43;8.18;;;19.30;99.90;;;;;;5107159;28;20145;-40
2021/09/03 09:34:48;;;;;;;11.75;8.07;;;19.30;99.90;;;;;;5107423;28;20081;-38
2021/09/03 09:37:17;;;;;;;11.57;7.35;;;19.40;99.90;;;;;;5098440;28;20387;-39
2021/09/03 09:39:44;;;;;;;10.40;6.93;;;19.40;99.90;;;;;;5085222;28;20059;-42
2021/09/03 09:42:22;;;;;;;16.80;9.27;;;19.50;99.90;;;;;;5081559;28;20024;-37
2021/09/03 09:45:07;;;;;;;10.20;8.07;;;19.60;99.90;;;;;;5085785;28;20074;-39
2021/09/03 09:47:34;;;;;;;10.77;7.05;;;19.60;99.90;;;;;;5081356;28;20090;-36
2021/09/03 09:50:25;;;;;;;13.13;8.02;;;19.70;99.90;;;;;;5096497;28;20030;-35
2021/09/03 09:52:50;;;;;;;10.02;7.38;;;19.80;99.90;;;;;;5086141;28;20036;-37
2021/09/03 09:55:19;;;;;;;9.95;7.78;;;19.80;99.90;;;;;;5098379;28;20022;-36
2021/09/03 09:57:49;;;;;;;10.57;7.80;;;19.90;99.90;;;;;;5107157;28;20492;-42
2021/09/03 10:00:15;;;;;;;9.38;6.50;;;19.90;99.90;;;;;;5101269;28;20040;-44
2021/09/03 10:02:43;;;;;;;8.48;5.78;;;19.90;99.90;;;;;;5081510;28;20025;-39
2021/09/03 10:05:10;;;;;;;8.35;6.43;;;20.00;99.90;;;;;;5096940;28;20015;-41
2021/09/03 10:07:37;;;;;;;9.15;6.40;;;20.00;99.90;;;;;;5099736;28;20119;-38
2021/09/03 10:10:03;;;;;;;8.57;6.18;;;20.00;99.90;;;;;;5100475;28;20020;-40
2021/09/03 10:12:28;;;;;;;10.20;6.10;;;20.00;99.90;;;;;;5089857;28;20105;-39
2021/09/03 10:14:55;;;;;;;8.35;6.25;;;20.10;99.90;;;;;;5086157;28;20736;-38
2021/09/03 10:17:21;;;;;;;15.00;7.88;;;20.10;99.90;;;;;;5079592;28;20021;-36
2021/09/03 10:19:51;;;;;;;9.27;7.07;;;20.20;99.90;;;;;;5075270;28;20062;-40
2021/09/03 10:22:19;;;;;;;8.88;6.60;;;20.30;99.90;;;;;;5096102;28;20110;-36
2021/09/03 10:24:47;;;;;;;9.20;6.32;;;20.40;99.90;;;;;;5106630;28;20023;-39
2021/09/03 10:27:14;;;;;;;8.77;6.50;;;20.40;99.90;;;;;;5093648;28;20027;-37
2021/09/03 10:29:41;;;;;;;12.23;7.60;;;20.50;99.90;;;;;;5072788;28;20043;-37
2021/09/03 10:32:20;;;;;;;12.90;8.30;;;20.50;99.90;;;;;;5094909;28;20134;-36
2021/09/03 10:35:00;;;;;;;11.60;7.93;;;20.50;99.90;;;;;;5106484;28;20028;-38
2021/09/03 10:37:34;;;;;;;12.27;7.88;;;20.50;99.90;;;;;;5107227;28;20136;-36
2021/09/03 10:40:05;;;;;;;11.18;8.25;;;20.60;99.90;;;;;;5107377;28;20027;-39
2021/09/03 10:45:25;;;;;;;7.15;5.70;;;20.60;99.80;;;;;;5109150;28;20031;-38
2021/09/03 10:47:50;;;;;;;;;;;20.60;99.90;;;;;;5107410;28;20038;-35
2021/09/03 10:50:34;;;;;;;10.65;7.75;;;20.60;99.90;;;;;;5110345;28;19904;-34
2021/09/03 10:53:11;;;;;;;10.55;7.00;;;20.70;99.80;;;;;;5106247;28;20116;-40
2021/09/03 10:56:00;;;;;;;8.88;6.10;;;20.70;99.70;;;;;;5109204;28;20024;-42
2021/09/03 10:58:39;;;;;;;8.20;6.63;;;20.80;99.60;;;;;;5109736;28;20016;-39
2021/09/03 11:01:11;;;;;;;8.88;6.53;;;20.80;99.60;;;;;;5109187;28;20023;-40
2021/09/03 11:04:01;;;;;;;10.95;8.82;;;20.90;99.60;;;;;;5109934;28;20028;-39
2021/09/03 11:06:28;;;;;;;12.07;8.07;;;20.90;99.40;;;;;;5111560;28;20035;-41
2021/09/03 11:09:16;;;;;;;9.02;6.80;;;21.00;99.20;;;;;;5113456;28;20237;-40
2021/09/03 11:11:50;;;;;;;10.18;7.35;;;21.00;99.30;;;;;;5086260;28;20087;-40
2021/09/03 11:14:18;;;;;;;8.05;6.43;;;21.00;99.20;;;;;;5089179;28;20463;-40
2021/09/03 11:16:45;;;;;;;11.18;7.15;;;21.00;99.30;;;;;;5096400;28;20031;-40
2021/09/03 11:19:18;;;;;;;11.00;7.43;;;21.00;99.20;;;;;;5112790;28;20759;-42
2021/09/03 11:21:51;;;;;;;10.32;7.32;;;21.10;99.10;;;;;;5112497;28;20031;-35
2021/09/03 11:24:26;;;;;;;8.95;7.07;;;21.10;99.10;;;;;;5107782;28;20016;-39
2021/09/03 11:26:53;;;;;;;10.32;6.88;;;21.20;99.20;;;;;;5112648;28;20116;-36
2021/09/03 11:29:41;;;;;;;10.50;6.15;;;21.20;99.20;;;;;;5112885;28;20011;-37
2021/09/03 11:32:13;;;;;;;9.00;6.15;;;21.30;99.20;;;;;;5094766;28;20037;-35
2021/09/03 11:34:53;;;;;;;7.85;5.35;;;21.30;99.00;;;;;;5106663;28;20028;-34
2021/09/03 11:37:27;;;;;;;7.63;6.07;;;21.40;98.90;;;;;;5112361;28;20032;-37
2021/09/03 11:39:56;;;;;;;8.80;5.90;;;21.50;98.60;;;;;;5112213;28;20458;-40
2021/09/03 11:42:25;;;;;;;7.47;5.57;;;21.60;98.40;;;;;;5113001;28;20103;-42
2021/09/03 11:44:56;;;;;;;6.43;4.78;;;21.60;98.50;;;;;;5112781;28;20012;-42
2021/09/03 11:47:34;;;;;;;7.53;4.78;;;21.60;98.60;;;;;;5112486;28;20027;-42
2021/09/03 11:50:00;;;;;;;6.50;5.53;;;21.60;98.70;;;;;;5111688;28;20024;-41
2021/09/03 11:52:28;;;;;;;7.05;5.85;;;21.80;98.60;;;;;;5112868;28;20522;-45
2021/09/03 11:54:53;;;;;;;7.00;5.53;;;21.80;98.40;;;;;;5111730;28;20486;-40
2021/09/03 11:57:21;;;;;;;6.72;5.03;;;21.90;98.40;;;;;;5112509;28;20024;-41
2021/09/03 11:59:58;;;;;;;8.15;6.00;;;22.00;98.40;;;;;;5111911;28;20027;-40
2021/09/03 12:02:26;;;;;;;8.13;6.13;;;22.10;98.40;;;;;;5111906;28;20035;-41
2021/09/03 12:04:53;;;;;;;8.60;6.82;;;22.10;98.20;;;;;;5112079;28;20489;-37
2021/09/03 12:07:20;;;;;;;8.02;6.32;;;22.20;98.30;;;;;;5102204;28;20024;-42
2021/09/03 12:09:46;;;;;;;7.90;5.85;;;22.30;98.20;;;;;;5104466;28;20023;-38
2021/09/03 12:12:21;;;;;;;7.05;5.40;;;22.40;98.20;;;;;;5109146;28;20541;-41
2021/09/03 12:14:56;;;;;;;6.03;4.80;;;22.40;98.10;;;;;;5088370;28;20020;-38
2021/09/03 12:17:21;;;;;;;7.38;5.82;;;22.60;98.00;;;;;;5086887;28;20027;-42
2021/09/03 12:19:47;;;;;;;13.00;7.75;;;22.70;97.70;;;;;;5092689;28;20013;-39
2021/09/03 12:22:19;;;;;;;7.80;6.45;;;22.80;97.50;;;;;;5084960;28;20487;-36
2021/09/03 12:24:49;;;;;;;7.88;5.95;;;22.90;97.40;;;;;;5092977;28;20027;-38
2021/09/03 12:27:15;;;;;;;9.57;6.82;;;22.90;97.30;;;;;;5098375;28;20538;-41
2021/09/03 12:29:43;;;;;;;9.40;6.20;;;22.90;97.10;;;;;;5111376;28;20103;-38
2021/09/03 12:32:09;;;;;;;9.70;6.22;;;23.00;97.00;;;;;;5095467;28;20029;-39
2021/09/03 12:34:35;;;;;;;9.23;6.70;;;23.00;97.10;;;;;;5081368;28;20045;-40
2021/09/03 12:37:11;;;;;;;8.40;6.35;;;23.10;96.80;;;;;;5111214;28;20039;-36
2021/09/03 12:39:40;;;;;;;8.13;5.88;;;23.10;96.60;;;;;;5111017;28;20026;-39